Time;durP1;ratioP1;P1;durP2;ratioP2;P2;SDS_P1;SDS_P2;PMS_P1;PMS_P2;Temp;Humidity;BMP_temperature;BMP_pressure;BME280_temperature;BME280_humidity;BME280_pressure;Samples;Min_cycle;Max_cycle;Signal;HPM_P1;HPM_P2
2022/10/23 00:01:22;;;;;;;9.02;2.65;;;15.90;99.90;;;;;;5092109;28;20028;-49
2022/10/23 00:03:51;;;;;;;11.75;2.75;;;15.70;99.90;;;;;;5090863;28;20071;-55
2022/10/23 00:06:17;;;;;;;11.25;4.68;;;15.90;99.90;;;;;;5091955;28;20016;-49
2022/10/23 00:08:45;;;;;;;10.27;2.95;;;15.80;99.90;;;;;;5092391;28;20032;-48
2022/10/23 00:11:14;;;;;;;8.60;2.90;;;15.80;99.90;;;;;;5092246;28;20074;-49
2022/10/23 00:13:40;;;;;;;16.30;3.15;;;15.80;99.90;;;;;;5092033;28;20028;-48
2022/10/23 00:16:06;;;;;;;8.95;2.78;;;15.80;99.90;;;;;;5092128;28;20563;-50
2022/10/23 00:18:32;;;;;;;15.02;3.30;;;15.80;99.90;;;;;;5092058;28;20028;-51
2022/10/23 00:20:58;;;;;;;10.18;2.97;;;15.80;99.90;;;;;;5092320;28;20027;-50
2022/10/23 00:23:24;;;;;;;12.27;3.83;;;15.80;99.90;;;;;;5092113;28;20380;-49
2022/10/23 00:25:49;;;;;;;12.20;3.08;;;15.80;99.90;;;;;;5092000;28;20414;-49
2022/10/23 00:28:15;;;;;;;10.25;3.00;;;15.90;99.90;;;;;;5090572;28;20024;-50
2022/10/23 00:30:41;;;;;;;11.45;2.88;;;15.80;99.90;;;;;;5091785;28;20032;-52
2022/10/23 00:33:09;;;;;;;13.65;3.03;;;15.80;99.90;;;;;;5091494;28;20147;-55
2022/10/23 00:35:38;;;;;;;12.68;3.75;;;15.90;99.90;;;;;;5091520;28;20108;-53
2022/10/23 00:38:03;;;;;;;11.48;3.53;;;15.80;99.90;;;;;;5091900;28;20020;-52
2022/10/23 00:40:29;;;;;;;12.73;2.90;;;15.90;99.90;;;;;;5091596;28;20024;-50
2022/10/23 00:42:55;;;;;;;12.10;2.75;;;15.90;99.90;;;;;;5091712;28;20016;-50
2022/10/23 00:45:26;;;;;;;11.57;3.80;;;15.90;99.90;;;;;;5092080;28;20077;-52
2022/10/23 00:47:54;;;;;;;11.98;2.72;;;15.90;99.90;;;;;;5091449;28;20028;-49
2022/10/23 00:50:24;;;;;;;10.07;2.85;;;15.80;99.90;;;;;;5090399;28;20032;-48
2022/10/23 00:52:52;;;;;;;12.35;2.60;;;15.90;99.90;;;;;;5091099;28;20016;-53
2022/10/23 00:55:20;;;;;;;8.32;3.13;;;15.80;99.90;;;;;;5091291;28;20036;-51
2022/10/23 00:57:47;;;;;;;12.40;4.05;;;15.80;99.90;;;;;;5091322;28;20012;-51
2022/10/23 01:00:26;;;;;;;7.97;2.63;;;15.80;99.90;;;;;;5091570;28;20099;-53
2022/10/23 01:02:53;;;;;;;11.48;2.75;;;15.80;99.90;;;;;;5091342;28;20024;-50
2022/10/23 01:05:25;;;;;;;13.13;2.88;;;15.80;99.90;;;;;;5091421;28;20027;-49
2022/10/23 01:08:08;;;;;;;14.95;3.20;;;15.80;99.90;;;;;;5091233;28;20024;-51
2022/10/23 01:11:04;;;;;;;15.95;3.60;;;15.80;99.90;;;;;;5091324;28;20052;-52
2022/10/23 01:13:56;;;;;;;10.88;2.58;;;15.80;99.90;;;;;;5087727;28;20093;-53
2022/10/23 01:16:43;;;;;;;13.13;3.28;;;15.80;99.90;;;;;;5090771;28;20044;-54
2022/10/23 01:19:48;;;;;;;16.40;3.38;;;15.80;99.90;;;;;;5091214;28;20090;-53
2022/10/23 01:22:32;;;;;;;12.63;2.95;;;15.80;99.90;;;;;;5091269;28;20020;-51
2022/10/23 01:25:27;;;;;;;10.27;3.30;;;15.80;99.90;;;;;;5091235;28;20024;-51
2022/10/23 01:28:01;;;;;;;12.05;3.38;;;15.80;99.90;;;;;;5091195;28;20020;-48
2022/10/23 01:30:28;;;;;;;18.08;4.00;;;15.80;99.90;;;;;;5091302;28;20024;-49
2022/10/23 01:33:00;;;;;;;13.07;2.90;;;15.80;99.90;;;;;;5091151;28;20031;-48
2022/10/23 01:35:36;;;;;;;13.55;3.20;;;15.80;99.90;;;;;;5090684;28;20559;-49
2022/10/23 01:38:13;;;;;;;11.63;3.33;;;15.80;99.90;;;;;;5089927;28;20079;-57
2022/10/23 01:40:51;;;;;;;10.70;3.17;;;15.90;99.90;;;;;;5090918;28;20475;-48
2022/10/23 01:43:24;;;;;;;11.65;3.20;;;15.90;99.90;;;;;;5090753;28;20031;-50
2022/10/23 01:45:57;;;;;;;12.75;2.97;;;15.90;99.90;;;;;;5090905;28;20036;-49
2022/10/23 01:48:27;;;;;;;14.40;3.15;;;15.90;99.90;;;;;;5090936;28;20020;-51
2022/10/23 01:50:56;;;;;;;14.23;3.30;;;15.90;99.90;;;;;;5090753;28;20123;-54
2022/10/23 01:53:26;;;;;;;15.68;3.15;;;15.90;99.90;;;;;;5090774;28;20398;-54
2022/10/23 01:55:54;;;;;;;9.30;2.70;;;15.90;99.90;;;;;;5090479;28;20032;-49
2022/10/23 01:58:21;;;;;;;11.90;3.10;;;15.80;99.90;;;;;;5090782;28;20074;-57
2022/10/23 02:00:49;;;;;;;12.20;3.17;;;15.80;99.90;;;;;;5090520;28;20024;-51
2022/10/23 02:03:16;;;;;;;11.27;3.88;;;15.80;99.90;;;;;;5076820;28;20140;-57
2022/10/23 02:05:43;;;;;;;8.20;3.13;;;15.80;99.90;;;;;;5090500;28;20035;-55
2022/10/23 02:08:09;;;;;;;9.60;3.08;;;15.80;99.90;;;;;;5090439;28;20028;-52
2022/10/23 02:10:48;;;;;;;11.75;3.30;;;15.90;99.90;;;;;;5090415;28;20392;-52
2022/10/23 02:13:46;;;;;;;10.85;2.88;;;15.90;99.90;;;;;;5090457;28;20428;-53
2022/10/23 02:16:18;;;;;;;8.38;2.38;;;15.90;99.90;;;;;;5090294;28;20043;-50
2022/10/23 02:19:06;;;;;;;14.40;3.10;;;15.90;99.90;;;;;;5090511;28;20024;-53
2022/10/23 02:22:25;;;;;;;8.98;2.53;;;15.90;99.90;;;;;;5090414;28;20055;-51
2022/10/23 02:25:15;;;;;;;12.68;3.10;;;15.80;99.90;;;;;;5020706;28;20026;-53
2022/10/23 02:27:40;;;;;;;;;;;15.90;99.90;;;;;;5083120;28;20060;-54
2022/10/23 02:30:10;;;;;;;8.60;2.75;;;15.80;99.90;;;;;;5094125;28;20320;-49
2022/10/23 02:32:40;;;;;;;9.50;2.42;;;15.80;99.90;;;;;;5094239;28;20077;-53
2022/10/23 02:35:06;;;;;;;11.65;2.72;;;15.80;99.90;;;;;;5093857;28;20040;-51
2022/10/23 02:37:32;;;;;;;11.60;2.40;;;15.70;99.90;;;;;;5093883;28;20028;-52
2022/10/23 02:39:57;;;;;;;7.05;2.42;;;15.70;99.90;;;;;;5094236;28;20095;-49
2022/10/23 02:42:50;;;;;;;10.32;2.50;;;15.70;99.90;;;;;;5094080;28;20134;-49
2022/10/23 02:45:18;;;;;;;7.45;2.42;;;15.80;99.90;;;;;;5094063;28;20028;-49
2022/10/23 02:47:50;;;;;;;7.20;2.67;;;15.80;99.90;;;;;;5093597;28;20546;-48
2022/10/23 02:50:24;;;;;;;11.07;2.42;;;15.80;99.90;;;;;;5094074;28;20032;-48
2022/10/23 02:53:17;;;;;;;7.53;2.45;;;15.80;99.90;;;;;;5093764;28;20030;-50
2022/10/23 02:55:55;;;;;;;7.38;2.22;;;15.90;99.90;;;;;;5093201;28;20028;-53
2022/10/23 02:58:42;;;;;;;6.57;2.08;;;15.80;99.90;;;;;;5093604;28;20028;-51
2022/10/23 03:01:15;;;;;;;8.60;2.75;;;15.80;99.90;;;;;;5093446;28;20044;-49
2022/10/23 03:04:07;;;;;;;5.32;2.47;;;15.80;99.90;;;;;;5093641;28;20043;-49
2022/10/23 03:06:33;;;;;;;6.20;2.08;;;15.80;99.90;;;;;;5076940;28;20123;-49
2022/10/23 03:09:05;;;;;;;8.85;2.72;;;15.80;99.90;;;;;;5093620;28;20099;-51
2022/10/23 03:11:31;;;;;;;7.93;2.10;;;15.80;99.90;;;;;;5091622;28;20024;-50
2022/10/23 03:13:57;;;;;;;9.05;2.28;;;15.80;99.90;;;;;;5093510;28;20078;-53
2022/10/23 03:16:22;;;;;;;10.85;2.40;;;15.80;99.90;;;;;;5093094;28;20043;-50
2022/10/23 03:18:48;;;;;;;7.55;2.10;;;15.80;99.90;;;;;;5093342;28;20107;-49
2022/10/23 03:21:13;;;;;;;9.15;2.25;;;15.80;99.90;;;;;;5093049;28;20460;-49
2022/10/23 03:23:39;;;;;;;13.82;2.67;;;15.80;99.90;;;;;;5093383;28;20530;-51
2022/10/23 03:26:05;;;;;;;12.30;3.47;;;15.80;99.90;;;;;;5093110;28;20023;-48
2022/10/23 03:28:30;;;;;;;8.43;2.20;;;15.80;99.90;;;;;;5093262;28;20059;-48
2022/10/23 03:30:56;;;;;;;6.40;2.20;;;15.80;99.90;;;;;;5093200;28;20089;-51
2022/10/23 03:33:22;;;;;;;8.65;2.47;;;15.80;99.90;;;;;;5093000;28;20028;-49
2022/10/23 03:35:48;;;;;;;8.75;2.40;;;15.80;99.90;;;;;;5092541;28;20047;-55
2022/10/23 03:38:14;;;;;;;11.00;3.33;;;15.90;99.90;;;;;;5087894;28;20016;-49
2022/10/23 03:40:41;;;;;;;10.10;2.20;;;15.90;99.90;;;;;;5072476;28;20040;-49
2022/10/23 03:43:06;;;;;;;11.40;2.28;;;15.90;99.90;;;;;;5085974;28;20028;-53
2022/10/23 03:45:32;;;;;;;8.60;2.55;;;15.90;99.90;;;;;;5092397;28;20038;-55
2022/10/23 03:47:57;;;;;;;5.47;2.00;;;15.90;99.90;;;;;;5092568;28;20055;-51
2022/10/23 03:50:24;;;;;;;10.80;2.03;;;15.80;99.90;;;;;;5092778;28;20095;-54
2022/10/23 03:52:49;;;;;;;7.47;2.03;;;15.90;99.90;;;;;;5092545;28;20024;-52
2022/10/23 03:55:15;;;;;;;5.30;2.10;;;15.90;99.90;;;;;;5092349;28;20395;-51
2022/10/23 03:57:41;;;;;;;9.07;2.53;;;15.90;99.90;;;;;;5092563;28;20036;-51
2022/10/23 04:00:07;;;;;;;4.80;2.10;;;15.90;99.90;;;;;;5092447;28;20028;-49
2022/10/23 04:02:33;;;;;;;8.40;2.38;;;15.90;99.90;;;;;;5092507;28;20035;-51
2022/10/23 04:04:59;;;;;;;3.90;1.70;;;15.90;99.90;;;;;;5092277;28;20024;-49
2022/10/23 04:07:24;;;;;;;10.73;2.22;;;15.90;99.90;;;;;;5092446;28;20380;-51
2022/10/23 04:09:50;;;;;;;7.63;3.28;;;16.00;99.90;;;;;;5092553;28;20024;-48
2022/10/23 04:12:16;;;;;;;7.80;2.65;;;15.90;99.90;;;;;;5092029;28;20480;-50
2022/10/23 04:14:41;;;;;;;11.10;2.72;;;15.90;99.90;;;;;;5092158;28;20041;-53
2022/10/23 04:17:07;;;;;;;6.43;1.95;;;15.90;99.90;;;;;;5091675;28;20028;-49
2022/10/23 04:19:32;;;;;;;9.23;1.92;;;16.00;99.90;;;;;;5092131;28;20384;-52
2022/10/23 04:21:58;;;;;;;6.47;2.20;;;16.00;99.90;;;;;;5092109;28;20400;-48
2022/10/23 04:24:25;;;;;;;6.28;2.10;;;16.00;99.90;;;;;;5092134;28;20016;-50
2022/10/23 04:26:51;;;;;;;5.82;1.88;;;16.00;99.90;;;;;;5092113;28;20028;-49
2022/10/23 04:29:17;;;;;;;6.55;2.00;;;16.00;99.90;;;;;;5091870;28;20019;-50
2022/10/23 04:31:42;;;;;;;9.40;2.08;;;16.00;99.90;;;;;;5091964;28;20074;-49
2022/10/23 04:34:08;;;;;;;5.97;1.92;;;16.10;99.90;;;;;;5091594;28;20036;-50
2022/10/23 04:36:33;;;;;;;7.72;1.83;;;16.20;99.90;;;;;;5091921;28;20032;-49
2022/10/23 04:38:59;;;;;;;7.82;1.80;;;16.20;99.90;;;;;;5092038;28;20016;-49
2022/10/23 04:41:25;;;;;;;6.95;1.70;;;16.20;99.90;;;;;;5091595;28;20575;-49
2022/10/23 04:43:50;;;;;;;11.02;1.95;;;16.30;99.90;;;;;;5091751;28;20102;-49
2022/10/23 04:46:16;;;;;;;5.63;1.73;;;16.20;99.90;;;;;;5090217;28;20024;-54
2022/10/23 04:48:42;;;;;;;7.97;2.25;;;16.20;99.90;;;;;;5091563;28;20020;-49
2022/10/23 04:51:08;;;;;;;6.60;1.80;;;16.20;99.90;;;;;;5091061;28;20063;-49
2022/10/23 04:53:34;;;;;;;5.15;1.90;;;16.20;99.90;;;;;;5091445;28;20552;-53
2022/10/23 04:56:00;;;;;;;5.72;2.05;;;16.20;99.90;;;;;;5091397;28;20111;-50
2022/10/23 04:58:27;;;;;;;6.00;1.55;;;16.20;99.90;;;;;;5091365;28;20019;-51
2022/10/23 05:00:53;;;;;;;7.20;1.85;;;16.20;99.90;;;;;;5091491;28;20036;-48
2022/10/23 05:03:20;;;;;;;7.85;1.55;;;16.20;99.90;;;;;;5091272;28;20561;-51
2022/10/23 05:05:45;;;;;;;4.93;1.67;;;16.30;99.90;;;;;;5091350;28;20041;-48
2022/10/23 05:08:11;;;;;;;5.55;1.80;;;16.20;99.90;;;;;;5091139;28;20025;-49
2022/10/23 05:10:38;;;;;;;7.35;1.50;;;16.30;99.90;;;;;;5091401;28;20031;-51
2022/10/23 05:13:04;;;;;;;5.55;1.50;;;16.40;99.90;;;;;;5091302;28;20540;-52
2022/10/23 05:15:30;;;;;;;5.68;1.52;;;16.40;99.90;;;;;;5090677;28;20024;-53
2022/10/23 05:18:01;;;;;;;5.22;1.80;;;16.50;99.90;;;;;;5089558;28;20232;-51
2022/10/23 05:20:32;;;;;;;6.55;2.05;;;16.50;99.90;;;;;;5091060;28;20020;-54
2022/10/23 05:22:59;;;;;;;4.57;1.83;;;16.70;99.90;;;;;;5091170;28;20020;-51
2022/10/23 05:25:25;;;;;;;6.07;2.00;;;16.70;99.90;;;;;;5091208;28;20046;-50
2022/10/23 05:27:51;;;;;;;7.93;1.60;;;16.80;99.90;;;;;;5091149;28;20054;-52
2022/10/23 05:30:17;;;;;;;5.70;1.65;;;16.80;99.90;;;;;;5090850;28;20035;-49
2022/10/23 05:32:43;;;;;;;8.25;2.03;;;16.80;99.90;;;;;;5091202;28;20028;-53
2022/10/23 05:35:14;;;;;;;7.95;1.95;;;16.80;99.90;;;;;;5090720;28;20527;-48
2022/10/23 05:37:44;;;;;;;9.43;2.35;;;16.80;99.90;;;;;;5090846;28;20028;-54
2022/10/23 05:40:10;;;;;;;11.95;2.13;;;16.70;99.90;;;;;;5091041;28;20020;-51
2022/10/23 05:42:36;;;;;;;10.10;2.22;;;16.60;99.90;;;;;;5090839;28;20028;-55
2022/10/23 05:45:02;;;;;;;9.38;2.10;;;16.60;99.90;;;;;;5090480;28;20020;-51
2022/10/23 05:47:28;;;;;;;6.45;2.08;;;16.60;99.90;;;;;;5090548;28;20031;-49
2022/10/23 05:49:54;;;;;;;9.25;2.05;;;16.60;99.90;;;;;;5090915;28;20020;-52
2022/10/23 05:52:19;;;;;;;11.65;2.45;;;16.60;99.90;;;;;;5091024;28;20504;-50
2022/10/23 05:54:45;;;;;;;8.23;1.90;;;16.60;99.90;;;;;;5090733;28;20028;-50
2022/10/23 05:57:11;;;;;;;11.15;2.78;;;16.60;99.90;;;;;;5090723;28;20086;-54
2022/10/23 05:59:36;;;;;;;11.05;2.28;;;16.60;99.90;;;;;;5089991;28;20024;-50
2022/10/23 06:02:02;;;;;;;11.20;2.30;;;16.60;99.90;;;;;;5092049;28;20047;-51
2022/10/23 06:04:28;;;;;;;7.95;1.95;;;16.60;99.90;;;;;;5094171;28;20024;-52
2022/10/23 06:06:53;;;;;;;11.07;2.20;;;16.60;99.90;;;;;;5094407;28;20028;-53
2022/10/23 06:09:19;;;;;;;8.88;2.45;;;16.50;99.90;;;;;;5094314;28;20016;-56
2022/10/23 06:11:44;;;;;;;15.73;2.47;;;16.40;99.90;;;;;;5094403;28;20024;-54
2022/10/23 06:14:10;;;;;;;9.93;2.25;;;16.30;99.90;;;;;;5094386;28;20181;-54
2022/10/23 06:16:35;;;;;;;11.52;2.72;;;16.10;99.90;;;;;;5094092;28;20040;-50
2022/10/23 06:19:01;;;;;;;10.43;2.60;;;16.00;99.90;;;;;;5094438;28;20031;-50
2022/10/23 06:21:27;;;;;;;17.60;2.92;;;16.00;99.90;;;;;;5094557;28;20028;-53
2022/10/23 06:23:54;;;;;;;13.43;2.78;;;15.90;99.90;;;;;;5094152;28;20016;-54
2022/10/23 06:26:20;;;;;;;10.18;3.00;;;16.00;99.90;;;;;;5094211;28;20490;-53
2022/10/23 06:28:45;;;;;;;14.20;3.63;;;15.90;99.90;;;;;;5093993;28;20028;-52
2022/10/23 06:31:14;;;;;;;13.10;2.60;;;15.90;99.90;;;;;;5091425;28;20033;-57
2022/10/23 06:33:40;;;;;;;16.23;3.07;;;15.90;99.90;;;;;;5093936;28;20107;-56
2022/10/23 06:36:09;;;;;;;12.38;3.00;;;15.90;99.90;;;;;;5093926;28;20032;-58
2022/10/23 06:38:38;;;;;;;13.63;3.00;;;15.90;99.90;;;;;;5081453;28;20067;-53
2022/10/23 06:41:18;;;;;;;11.23;2.88;;;15.80;99.90;;;;;;5093811;28;20066;-55
2022/10/23 06:43:47;;;;;;;12.23;2.83;;;15.80;99.90;;;;;;5093823;28;20512;-58
2022/10/23 06:46:13;;;;;;;10.98;2.42;;;15.80;99.90;;;;;;5093528;28;20020;-55
2022/10/23 06:48:41;;;;;;;11.85;3.05;;;15.80;99.90;;;;;;5093882;28;20036;-54
2022/10/23 06:51:08;;;;;;;14.73;3.17;;;15.80;99.90;;;;;;5093850;28;20081;-55
2022/10/23 06:53:34;;;;;;;15.07;3.35;;;15.80;99.90;;;;;;5093744;28;20477;-53
2022/10/23 06:56:01;;;;;;;11.25;2.90;;;15.70;99.90;;;;;;5093643;28;20036;-54
2022/10/23 06:58:27;;;;;;;16.48;3.47;;;15.80;99.90;;;;;;5093804;28;20455;-53
2022/10/23 07:00:53;;;;;;;10.00;2.83;;;15.80;99.90;;;;;;5093699;28;20056;-53
2022/10/23 07:03:19;;;;;;;13.05;3.17;;;15.80;99.90;;;;;;5093682;28;20028;-54
2022/10/23 07:05:46;;;;;;;16.15;3.05;;;15.80;99.90;;;;;;5093593;28;20036;-56
2022/10/23 07:08:12;;;;;;;10.32;2.88;;;15.80;99.90;;;;;;5093282;28;20028;-53
2022/10/23 07:10:37;;;;;;;15.73;3.15;;;15.80;99.90;;;;;;5093423;28;20032;-56
2022/10/23 07:13:03;;;;;;;13.98;3.22;;;15.90;99.90;;;;;;5092931;28;20362;-51
2022/10/23 07:15:29;;;;;;;16.63;4.53;;;15.80;99.90;;;;;;5092930;28;20038;-54
2022/10/23 07:17:55;;;;;;;13.80;3.00;;;15.90;99.90;;;;;;5093223;28;20113;-53
2022/10/23 07:20:21;;;;;;;13.00;2.97;;;15.90;99.90;;;;;;5093045;28;20019;-53
2022/10/23 07:22:54;;;;;;;9.38;2.72;;;16.00;99.90;;;;;;5092464;28;20016;-56
2022/10/23 07:25:24;;;;;;;14.82;3.17;;;16.00;99.90;;;;;;5079006;28;20020;-52
2022/10/23 07:27:50;;;;;;;10.23;3.00;;;16.00;99.90;;;;;;5076798;28;20035;-54
2022/10/23 07:30:16;;;;;;;10.43;2.83;;;16.00;99.90;;;;;;5092229;28;20437;-56
2022/10/23 07:32:43;;;;;;;11.43;2.55;;;16.00;99.90;;;;;;5092915;28;20028;-55
2022/10/23 07:35:10;;;;;;;18.90;3.35;;;16.00;99.90;;;;;;5092078;28;20044;-54
2022/10/23 07:37:36;;;;;;;14.07;3.15;;;16.00;99.90;;;;;;5077035;28;20042;-56
2022/10/23 07:40:02;;;;;;;11.98;3.22;;;16.00;99.90;;;;;;5074641;28;20104;-57
2022/10/23 07:42:28;;;;;;;15.10;2.92;;;16.10;99.90;;;;;;5074623;28;20031;-55
2022/10/23 07:44:54;;;;;;;8.55;2.67;;;16.10;99.90;;;;;;5080772;28;20020;-51
2022/10/23 07:47:19;;;;;;;8.95;3.00;;;16.10;99.90;;;;;;5088278;28;20021;-51
2022/10/23 07:49:46;;;;;;;12.27;3.05;;;16.10;99.90;;;;;;5091145;28;20038;-55
2022/10/23 07:52:12;;;;;;;14.00;4.18;;;16.10;99.90;;;;;;5092631;28;20048;-54
2022/10/23 07:54:37;;;;;;;13.07;3.40;;;16.10;99.90;;;;;;5092322;28;20072;-55
2022/10/23 07:57:03;;;;;;;7.00;2.67;;;16.10;99.90;;;;;;5092258;28;20081;-55
2022/10/23 07:59:29;;;;;;;13.35;3.17;;;16.00;99.90;;;;;;5079108;28;20032;-52
2022/10/23 08:01:55;;;;;;;11.18;3.13;;;16.00;99.90;;;;;;5075201;28;20393;-55
2022/10/23 08:04:21;;;;;;;7.53;2.45;;;16.00;99.90;;;;;;5090436;28;20024;-51
2022/10/23 08:06:47;;;;;;;10.70;2.70;;;16.00;99.90;;;;;;5090481;28;20028;-50
2022/10/23 08:09:13;;;;;;;12.07;2.63;;;16.00;99.90;;;;;;5091690;28;20020;-52
2022/10/23 08:11:39;;;;;;;11.50;3.20;;;16.10;99.90;;;;;;5091329;28;20035;-48
2022/10/23 08:14:07;;;;;;;11.63;4.07;;;16.10;99.90;;;;;;5090538;28;20122;-48
2022/10/23 08:16:34;;;;;;;7.60;2.97;;;16.00;99.90;;;;;;5090631;28;20032;-49
2022/10/23 08:19:00;;;;;;;10.52;2.72;;;16.00;99.90;;;;;;5090428;28;20105;-55
2022/10/23 08:21:26;;;;;;;9.63;2.33;;;16.10;99.90;;;;;;5075001;28;20381;-49
2022/10/23 08:23:54;;;;;;;10.48;2.90;;;16.10;99.90;;;;;;5090350;28;20090;-48
2022/10/23 08:26:20;;;;;;;10.70;2.60;;;16.10;99.90;;;;;;5089173;28;20074;-49
2022/10/23 08:28:46;;;;;;;12.63;3.67;;;16.10;99.90;;;;;;5091821;28;20040;-49
2022/10/23 08:31:14;;;;;;;10.68;2.75;;;16.00;99.90;;;;;;5090170;28;20012;-51
2022/10/23 08:33:41;;;;;;;8.73;2.30;;;16.00;99.90;;;;;;5090331;28;20028;-50
2022/10/23 08:36:23;;;;;;;7.22;1.90;;;16.00;99.90;;;;;;5090888;28;20488;-49
2022/10/23 08:38:52;;;;;;;6.05;2.20;;;15.90;99.90;;;;;;5090155;28;20026;-59
2022/10/23 08:41:21;;;;;;;9.23;2.17;;;15.80;99.90;;;;;;5090907;28;20038;-52
2022/10/23 08:44:09;;;;;;;6.43;2.00;;;15.80;99.90;;;;;;5091420;28;20020;-51
2022/10/23 08:46:41;;;;;;;9.02;2.35;;;15.70;99.90;;;;;;5061686;28;20723;-51
2022/10/23 08:49:42;;;;;;;8.52;1.98;;;15.70;99.90;;;;;;5091575;28;20077;-50
2022/10/23 08:52:36;;;;;;;10.38;3.00;;;15.70;99.90;;;;;;5038028;28;20036;-55
2022/10/23 08:55:26;;;;;;;8.55;2.55;;;15.70;99.90;;;;;;5088288;28;20032;-54
2022/10/23 08:58:02;;;;;;;11.10;2.45;;;15.70;99.90;;;;;;5090754;28;20460;-55
2022/10/23 09:00:27;;;;;;;10.45;2.17;;;15.70;99.90;;;;;;5085917;28;20035;-50
2022/10/23 09:02:54;;;;;;;10.10;2.25;;;15.70;99.90;;;;;;5091025;28;20032;-50
2022/10/23 09:05:55;;;;;;;15.52;2.67;;;15.60;99.90;;;;;;5089806;28;20031;-55
2022/10/23 09:08:42;;;;;;;12.50;2.60;;;15.60;99.90;;;;;;5060528;28;20112;-50
2022/10/23 09:11:53;;;;;;;10.52;1.98;;;15.60;99.90;;;;;;5089815;28;20020;-50
2022/10/23 09:14:30;;;;;;;7.88;2.47;;;15.60;99.90;;;;;;5074303;28;20032;-53
2022/10/23 09:17:22;;;;;;;11.57;2.55;;;15.60;99.90;;;;;;5088120;28;20038;-53
2022/10/23 09:19:54;;;;;;;14.40;2.97;;;15.60;99.90;;;;;;5059372;28;20093;-54
2022/10/23 09:22:20;;;;;;;19.25;3.30;;;15.60;99.90;;;;;;5087566;28;20119;-52
2022/10/23 09:24:45;;;;;;;14.68;3.30;;;15.70;99.90;;;;;;5087017;28;20103;-51
2022/10/23 09:27:16;;;;;;;20.52;4.43;;;15.80;99.90;;;;;;5090415;28;20066;-51
2022/10/23 09:29:52;;;;;;;16.75;3.40;;;15.70;99.90;;;;;;5090243;28;20762;-51
2022/10/23 09:32:18;;;;;;;17.48;3.72;;;15.80;99.90;;;;;;5090020;28;20024;-54
2022/10/23 09:34:53;;;;;;;17.25;3.00;;;15.90;99.90;;;;;;5090010;28;20407;-48
2022/10/23 09:37:21;;;;;;;20.60;4.30;;;16.10;99.90;;;;;;5089386;28;20538;-48
2022/10/23 09:39:48;;;;;;;16.38;3.53;;;16.30;99.90;;;;;;5082603;28;20028;-53
2022/10/23 09:42:24;;;;;;;25.58;3.50;;;16.40;99.90;;;;;;5088170;28;20024;-51
2022/10/23 09:44:52;;;;;;;20.30;5.32;;;16.40;99.90;;;;;;5090001;28;20032;-49
2022/10/23 09:47:21;;;;;;;15.05;3.38;;;16.40;99.90;;;;;;5089707;28;20115;-49
2022/10/23 09:49:49;;;;;;;18.27;3.20;;;16.40;99.90;;;;;;5089947;28;20114;-54
2022/10/23 09:52:15;;;;;;;17.42;3.10;;;16.40;99.90;;;;;;5090003;28;20065;-54
2022/10/23 09:54:45;;;;;;;13.52;3.17;;;16.40;99.90;;;;;;5089885;28;20055;-49
2022/10/23 09:57:28;;;;;;;13.15;2.85;;;16.40;99.90;;;;;;5090047;28;20062;-51
2022/10/23 09:59:57;;;;;;;17.95;5.15;;;16.40;99.90;;;;;;5089583;28;20101;-52
2022/10/23 10:02:49;;;;;;;14.98;2.67;;;16.40;99.90;;;;;;5089669;28;20487;-49
2022/10/23 10:05:30;;;;;;;13.23;2.78;;;16.40;99.90;;;;;;5073910;28;20024;-52
2022/10/23 10:08:43;;;;;;;14.05;2.90;;;16.40;99.90;;;;;;5089262;28;20089;-49
2022/10/23 10:11:31;;;;;;;10.63;2.72;;;16.40;99.90;;;;;;5083730;28;20530;-50
2022/10/23 10:14:09;;;;;;;16.42;2.67;;;16.40;99.90;;;;;;5085102;28;20032;-50
2022/10/23 10:17:10;;;;;;;15.68;2.90;;;16.40;99.90;;;;;;5076006;28;20040;-51
2022/10/23 10:19:55;;;;;;;16.00;3.67;;;16.40;99.90;;;;;;5088119;28;20077;-48
2022/10/23 10:22:26;;;;;;;9.93;2.70;;;16.40;99.90;;;;;;5086878;28;20024;-52
2022/10/23 10:25:16;;;;;;;7.90;2.60;;;16.40;99.90;;;;;;5088502;28;20044;-52
2022/10/23 10:27:50;;;;;;;15.52;3.05;;;16.50;99.90;;;;;;5087834;28;20032;-52
2022/10/23 10:30:44;;;;;;;12.73;3.50;;;16.60;99.90;;;;;;5087859;28;20028;-51
2022/10/23 10:33:21;;;;;;;10.55;2.60;;;16.70;99.90;;;;;;5086845;28;20103;-48
2022/10/23 10:35:55;;;;;;;10.90;2.47;;;16.80;99.90;;;;;;5074321;28;20064;-49
2022/10/23 10:38:43;;;;;;;10.23;2.95;;;16.80;99.90;;;;;;5077384;28;20468;-56
2022/10/23 10:41:20;;;;;;;11.23;2.70;;;16.90;99.90;;;;;;5075226;28;20544;-51
2022/10/23 10:44:11;;;;;;;12.82;3.13;;;17.00;99.90;;;;;;5076951;28;20036;-51
2022/10/23 10:47:02;;;;;;;12.25;2.63;;;17.00;99.90;;;;;;5079255;28;20107;-52
2022/10/23 10:49:39;;;;;;;8.65;2.70;;;17.00;99.90;;;;;;5083733;28;20031;-55
2022/10/23 10:52:37;;;;;;;17.70;2.70;;;17.20;99.90;;;;;;5090932;28;20024;-52
2022/10/23 10:55:16;;;;;;;20.87;4.53;;;17.10;99.90;;;;;;5091612;28;20028;-54
2022/10/23 10:57:50;;;;;;;8.70;2.35;;;17.20;99.90;;;;;;5089396;28;20268;-51
2022/10/23 11:00:19;;;;;;;14.95;2.60;;;17.30;99.90;;;;;;5085985;28;20405;-52
2022/10/23 11:02:54;;;;;;;12.63;2.65;;;17.30;99.90;;;;;;5090697;28;20016;-52
2022/10/23 11:05:37;;;;;;;11.48;2.42;;;17.40;99.90;;;;;;5086534;28;20028;-52
2022/10/23 11:08:08;;;;;;;13.10;2.65;;;17.60;99.90;;;;;;5080037;28;20020;-53
2022/10/23 11:10:37;;;;;;;10.50;2.92;;;17.60;99.90;;;;;;5085445;28;20017;-49
2022/10/23 11:13:03;;;;;;;15.15;2.72;;;17.70;99.90;;;;;;5085022;28;20028;-49
2022/10/23 11:15:41;;;;;;;11.85;2.65;;;17.60;99.90;;;;;;5086448;28;20032;-51
2022/10/23 11:18:14;;;;;;;11.13;3.03;;;17.70;99.90;;;;;;5074666;28;20107;-51
2022/10/23 11:21:00;;;;;;;14.73;2.65;;;17.80;99.90;;;;;;5090882;28;20036;-55
2022/10/23 11:24:27;;;;;;;12.10;2.55;;;18.10;99.90;;;;;;5086997;28;20040;-56
2022/10/23 11:27:01;;;;;;;12.50;2.40;;;18.80;99.90;;;;;;4994137;28;20029;-60
2022/10/23 11:29:51;;;;;;;10.30;1.88;;;18.70;99.90;;;;;;5010439;28;20014;-51
2022/10/23 11:32:48;;;;;;;8.52;1.80;;;18.40;99.90;;;;;;5060848;28;20125;-54
2022/10/23 11:35:43;;;;;;;7.10;1.83;;;18.10;99.90;;;;;;5083278;28;20048;-53
2022/10/23 11:38:27;;;;;;;6.05;1.88;;;18.00;99.90;;;;;;5083010;28;20074;-49
2022/10/23 11:41:15;;;;;;;7.30;2.40;;;17.90;99.90;;;;;;5082245;28;20024;-47
2022/10/23 11:44:04;;;;;;;11.07;2.70;;;18.10;99.90;;;;;;5081367;28;20028;-50
2022/10/23 11:46:34;;;;;;;6.50;1.65;;;19.80;99.90;;;;;;5085874;28;20016;-51
2022/10/23 11:49:04;;;;;;;10.88;2.20;;;21.70;99.90;;;;;;5088615;28;20032;-55
2022/10/23 11:51:39;;;;;;;14.07;2.70;;;23.40;99.90;;;;;;5087765;28;20423;-48
2022/10/23 11:54:12;;;;;;;7.93;1.80;;;25.00;99.90;;;;;;5091586;28;20032;-54
2022/10/23 11:57:05;;;;;;;8.02;1.98;;;24.70;99.90;;;;;;5090553;28;20043;-52
2022/10/23 11:59:44;;;;;;;5.63;1.70;;;25.30;99.90;;;;;;5080042;28;20017;-49
2022/10/23 12:02:40;;;;;;;5.28;1.98;;;25.40;99.90;;;;;;5083847;28;20032;-47
2022/10/23 12:05:26;;;;;;;5.90;1.60;;;24.60;99.90;;;;;;5087543;28;20139;-48
2022/10/23 12:07:58;;;;;;;9.55;1.70;;;23.50;99.90;;;;;;5088579;28;20055;-48
2022/10/23 12:10:30;;;;;;;8.90;2.00;;;23.80;99.90;;;;;;5090520;28;20035;-49
2022/10/23 12:13:04;;;;;;;8.52;1.98;;;23.50;99.90;;;;;;5090014;28;20027;-49
2022/10/23 12:15:33;;;;;;;8.68;1.95;;;23.50;99.90;;;;;;5087976;28;20036;-53
2022/10/23 12:18:16;;;;;;;4.82;1.90;;;22.70;99.90;;;;;;5079920;28;20024;-53
2022/10/23 12:20:58;;;;;;;8.13;1.60;;;22.10;99.90;;;;;;5079948;28;20351;-53
2022/10/23 12:23:48;;;;;;;6.05;1.83;;;22.30;99.90;;;;;;5083496;28;20393;-52
2022/10/23 12:26:26;;;;;;;5.55;2.00;;;23.20;99.90;;;;;;5084996;28;20020;-50
2022/10/23 12:29:13;;;;;;;8.95;2.13;;;22.80;99.90;;;;;;5085685;28;20024;-52
2022/10/23 12:32:03;;;;;;;4.63;1.98;;;22.50;99.90;;;;;;5085689;28;20035;-52
2022/10/23 12:34:47;;;;;;;8.05;2.20;;;22.20;99.90;;;;;;5088916;28;20119;-51
2022/10/23 12:37:31;;;;;;;7.65;1.98;;;22.30;99.90;;;;;;5087952;28;20073;-53
2022/10/23 12:39:58;;;;;;;6.55;2.40;;;21.60;99.90;;;;;;5084072;28;20039;-50
2022/10/23 12:42:28;;;;;;;6.35;2.08;;;21.50;99.90;;;;;;5086850;28;20035;-53
2022/10/23 12:45:03;;;;;;;10.10;2.50;;;21.10;99.90;;;;;;5088324;28;20024;-48
2022/10/23 12:47:29;;;;;;;4.38;1.70;;;20.80;99.90;;;;;;5086270;28;20012;-52
2022/10/23 12:49:55;;;;;;;9.90;2.83;;;20.60;99.90;;;;;;5084316;28;20128;-49
2022/10/23 12:52:23;;;;;;;7.05;2.25;;;20.60;99.90;;;;;;5090509;28;20122;-53
2022/10/23 12:54:49;;;;;;;10.35;2.67;;;20.60;99.90;;;;;;5090679;28;20024;-51
2022/10/23 12:57:22;;;;;;;8.35;2.22;;;20.40;99.90;;;;;;5090759;28;20057;-50
2022/10/23 12:59:50;;;;;;;7.15;2.50;;;20.00;99.90;;;;;;5085962;28;20351;-51
2022/10/23 13:02:19;;;;;;;7.32;2.95;;;19.70;99.90;;;;;;5082272;28;20029;-52
2022/10/23 13:04:45;;;;;;;7.18;2.72;;;19.70;99.90;;;;;;5083440;28;20054;-51
2022/10/23 13:07:11;;;;;;;5.97;2.42;;;20.00;99.90;;;;;;5082069;28;20302;-53